createdAt,value
2022-08-24T00:00:23.349Z,101621.97
2022-08-24T00:02:50.370Z,101613.06
2022-08-24T00:05:21.287Z,101618.53
2022-08-24T00:07:49.899Z,101616.72
2022-08-24T00:10:18.125Z,101618.69
2022-08-24T00:12:44.882Z,101617.13
2022-08-24T00:15:13.879Z,101616.50
2022-08-24T00:17:40.834Z,101619.41
2022-08-24T00:20:09.855Z,101617.63
2022-08-24T00:22:36.718Z,101621.47
2022-08-24T00:25:04.653Z,101617.91
2022-08-24T00:27:31.445Z,101620.59
2022-08-24T00:29:58.149Z,101624.34
2022-08-24T00:32:25.034Z,101630.63
2022-08-24T00:34:59.268Z,101633.47
2022-08-24T00:37:28.844Z,101628.19
2022-08-24T00:39:56.266Z,101623.56
2022-08-24T00:42:24.502Z,101620.09
2022-08-24T00:44:52.091Z,101615.81
2022-08-24T00:47:22.519Z,101620.50
2022-08-24T00:49:55.925Z,101614.38
2022-08-24T00:52:33.528Z,101619.78
2022-08-24T00:55:23.478Z,101615.31
2022-08-24T00:57:53.510Z,101624.56
2022-08-24T01:00:24.337Z,101620.03
2022-08-24T01:02:57.328Z,101623.59
2022-08-24T01:05:24.845Z,101624.72
2022-08-24T01:07:51.602Z,101634.66
2022-08-24T01:10:21.623Z,101624.97
2022-08-24T01:12:59.734Z,101613.63
2022-08-24T01:15:28.717Z,101624.16
2022-08-24T01:18:14.711Z,101612.75
2022-08-24T01:20:44.113Z,101624.69
2022-08-24T01:23:37.066Z,101619.38
2022-08-24T01:26:05.237Z,101629.03
2022-08-24T01:28:32.282Z,101625.63
2022-08-24T01:30:59.678Z,101621.28
2022-08-24T01:33:29.611Z,101620.47
2022-08-24T01:36:13.529Z,101626.13
2022-08-24T01:38:40.411Z,101613.84
2022-08-24T01:41:07.516Z,101621.13
2022-08-24T01:43:37.288Z,101625.50
2022-08-24T01:46:06.172Z,101622.06
2022-08-24T01:48:33.436Z,101624.69
2022-08-24T01:51:00.178Z,101623.91
2022-08-24T01:53:27.180Z,101635.56
2022-08-24T01:55:54.201Z,101625.66
2022-08-24T01:58:21.658Z,101625.97
2022-08-24T02:00:48.730Z,101629.56
2022-08-24T02:03:15.846Z,101630.34
2022-08-24T02:05:47.145Z,101634.00
2022-08-24T02:08:15.065Z,101635.97
2022-08-24T02:10:41.825Z,101640.34
2022-08-24T02:13:16.683Z,101637.84
2022-08-24T02:15:43.464Z,101644.28
2022-08-24T02:18:15.388Z,101647.16
2022-08-24T02:20:43.506Z,101642.84
2022-08-24T02:23:10.255Z,101641.19
2022-08-24T02:25:37.063Z,101634.91
2022-08-24T02:28:04.391Z,101641.44
2022-08-24T02:30:31.851Z,101635.06
2022-08-24T02:32:59.312Z,101640.47
2022-08-24T02:35:27.170Z,101645.06
2022-08-24T02:37:53.926Z,101646.91
2022-08-24T02:40:21.047Z,101645.97
2022-08-24T02:42:48.857Z,101638.97
2022-08-24T02:45:15.600Z,101636.28
2022-08-24T02:47:42.570Z,101634.38
2022-08-24T02:50:11.551Z,101638.97
2022-08-24T02:52:39.638Z,101629.19
2022-08-24T02:55:09.432Z,101635.56
2022-08-24T02:57:38.805Z,101631.28
2022-08-24T03:00:10.631Z,101634.84
2022-08-24T03:02:40.391Z,101635.94
2022-08-24T03:05:08.671Z,101643.72
2022-08-24T03:07:36.199Z,101636.41
2022-08-24T03:10:05.140Z,101639.13
2022-08-24T03:12:32.131Z,101638.81
2022-08-24T03:14:59.491Z,101633.34
2022-08-24T03:17:26.200Z,101635.84
2022-08-24T03:19:52.909Z,101633.72
2022-08-24T03:22:20.482Z,101636.13
2022-08-24T03:24:47.229Z,101633.13
2022-08-24T03:27:15.099Z,101641.03
2022-08-24T03:29:41.841Z,101644.31
2022-08-24T03:32:08.852Z,101637.88
2022-08-24T03:34:36.244Z,101636.03
2022-08-24T03:37:03.066Z,101640.97
2022-08-24T03:39:29.940Z,101641.59
2022-08-24T03:41:57.234Z,101633.31
2022-08-24T03:44:26.221Z,101633.97
2022-08-24T03:46:54.390Z,101633.84
2022-08-24T03:49:23.259Z,101633.78
2022-08-24T03:51:50.635Z,101642.66
2022-08-24T03:54:20.705Z,101644.44
2022-08-24T03:56:47.785Z,101643.47
2022-08-24T03:59:18.947Z,101647.72
2022-08-24T04:01:48.105Z,101645.03
2022-08-24T04:04:15.259Z,101654.03
2022-08-24T04:06:44.629Z,101646.88
2022-08-24T04:09:11.991Z,101654.03
2022-08-24T04:11:41.725Z,101657.66
2022-08-24T04:14:22.307Z,101659.09
2022-08-24T04:17:04.740Z,101662.59
2022-08-24T04:19:36.477Z,101659.09
2022-08-24T04:22:03.655Z,101663.72
2022-08-24T04:24:30.475Z,101672.75
2022-08-24T04:26:57.236Z,101670.91
2022-08-24T04:29:25.711Z,101666.22
2022-08-24T04:31:53.667Z,101665.28
2022-08-24T04:34:21.488Z,101664.44
2022-08-24T04:36:48.960Z,101661.13
2022-08-24T04:39:15.746Z,101670.81
2022-08-24T04:41:45.259Z,101677.06
2022-08-24T04:44:14.424Z,101674.16
2022-08-24T04:46:41.164Z,101676.66
2022-08-24T04:49:09.013Z,101672.22
2022-08-24T04:51:36.495Z,101677.38
2022-08-24T04:54:05.199Z,101682.59
2022-08-24T04:56:31.970Z,101683.81
2022-08-24T04:58:59.629Z,101683.63
2022-08-24T05:01:29.085Z,101688.00
2022-08-24T05:03:57.483Z,101692.34
2022-08-24T05:06:27.319Z,101693.25
2022-08-24T05:08:54.217Z,101688.97
2022-08-24T05:11:22.234Z,101696.44
2022-08-24T05:13:52.170Z,101694.63
2022-08-24T05:16:18.936Z,101706.75
2022-08-24T05:18:47.016Z,101707.16
2022-08-24T05:21:17.100Z,101709.59
2022-08-24T05:23:45.231Z,101710.03
2022-08-24T05:26:31.815Z,101722.19
2022-08-24T05:29:01.922Z,101715.38
2022-08-24T05:31:44.348Z,101712.50
2022-08-24T05:34:12.585Z,101716.94
2022-08-24T05:36:40.999Z,101713.91
2022-08-24T05:39:13.956Z,101715.22
2022-08-24T05:41:46.379Z,101710.47
2022-08-24T05:44:19.812Z,101704.13
2022-08-24T05:46:47.423Z,101719.06
2022-08-24T05:49:14.305Z,101715.88
2022-08-24T05:51:42.875Z,101720.19
2022-08-24T05:54:13.872Z,101720.84
2022-08-24T05:56:52.860Z,101717.16
2022-08-24T05:59:21.008Z,101725.94
2022-08-24T06:01:48.259Z,101723.06
2022-08-24T06:04:17.945Z,101721.22
2022-08-24T06:06:48.713Z,101724.63
2022-08-24T06:09:16.348Z,101732.56
2022-08-24T06:11:47.798Z,101728.44
2022-08-24T06:14:17.887Z,101736.47
2022-08-24T06:16:57.259Z,101734.03
2022-08-24T06:19:24.571Z,101734.28
2022-08-24T06:21:53.950Z,101741.31
2022-08-24T06:24:45.064Z,101741.25
2022-08-24T06:27:22.613Z,101736.03
2022-08-24T06:29:53.958Z,101728.41
2022-08-24T06:32:44.280Z,101741.19
2022-08-24T06:35:20.898Z,101734.75
2022-08-24T06:37:48.692Z,101741.03
2022-08-24T06:40:15.668Z,101738.81
2022-08-24T06:42:42.463Z,101744.63
2022-08-24T06:45:22.422Z,101743.94
2022-08-24T06:47:50.219Z,101742.50
2022-08-24T06:50:18.349Z,101743.00
2022-08-24T06:52:48.959Z,101757.06
2022-08-24T06:55:15.814Z,101763.13
2022-08-24T06:57:43.079Z,101759.03
2022-08-24T07:00:11.145Z,101762.94
2022-08-24T07:02:38.099Z,101765.44
2022-08-24T07:05:05.889Z,101759.78
2022-08-24T07:07:51.399Z,101764.66
2022-08-24T07:10:18.289Z,101773.34
2022-08-24T07:12:50.876Z,101773.94
2022-08-24T07:15:19.541Z,101763.56
2022-08-24T07:17:57.764Z,101775.69
2022-08-24T07:20:25.138Z,101770.75
2022-08-24T07:23:15.180Z,101772.81
2022-08-24T07:25:46.199Z,101769.78
2022-08-24T07:28:16.265Z,101770.28
2022-08-24T07:30:43.998Z,101764.56
2022-08-24T07:33:12.810Z,101770.94
2022-08-24T07:35:41.196Z,101768.34
2022-08-24T07:38:08.425Z,101771.22
2022-08-24T07:40:55.744Z,101774.06
2022-08-24T07:43:22.675Z,101779.56
2022-08-24T07:45:51.886Z,101783.72
2022-08-24T07:48:19.373Z,101784.31
2022-08-24T07:50:47.045Z,101782.38
2022-08-24T07:53:18.218Z,101786.72
2022-08-24T07:55:56.760Z,101787.88
2022-08-24T07:58:24.786Z,101787.03
2022-08-24T08:00:51.779Z,101785.88
2022-08-24T08:03:19.985Z,101780.34
2022-08-24T08:05:46.726Z,101777.94
2022-08-24T08:08:13.683Z,101783.13
2022-08-24T08:10:41.227Z,101786.44
2022-08-24T08:13:08.199Z,101785.88
2022-08-24T08:15:36.351Z,101787.03
2022-08-24T08:18:09.556Z,101784.13
2022-08-24T08:20:40.877Z,101777.28
2022-08-24T08:23:26.726Z,101773.47
2022-08-24T08:26:17.391Z,101775.53
2022-08-24T08:29:03.200Z,101787.75
2022-08-24T08:31:32.309Z,101789.47
2022-08-24T08:34:01.227Z,101783.38
2022-08-24T08:36:28.232Z,101784.75
2022-08-24T08:38:55.303Z,101790.06
2022-08-24T08:41:44.221Z,101787.47
2022-08-24T08:44:35.754Z,101796.66
2022-08-24T08:47:33.956Z,101795.50
2022-08-24T08:50:22.046Z,101797.81
2022-08-24T08:53:11.879Z,101802.03
2022-08-24T08:55:51.598Z,101800.13
2022-08-24T08:58:32.906Z,101790.03
2022-08-24T09:01:13.192Z,101789.13
2022-08-24T09:04:01.594Z,101790.50
2022-08-24T09:06:58.629Z,101797.34
2022-08-24T09:09:35.074Z,101796.84
2022-08-24T09:12:21.159Z,101793.22
2022-08-24T09:15:17.568Z,101793.75
2022-08-24T09:18:06.771Z,101792.00
2022-08-24T09:21:03.743Z,101791.91
2022-08-24T09:24:00.542Z,101795.88
2022-08-24T09:26:38.592Z,101797.25
2022-08-24T09:29:17.058Z,101801.06
2022-08-24T09:32:19.016Z,101800.38
2022-08-24T09:34:46.313Z,101798.06
2022-08-24T09:37:22.138Z,101790.09
2022-08-24T09:40:05.719Z,101790.09
2022-08-24T09:42:39.043Z,101795.28
2022-08-24T09:45:37.917Z,101791.84
2022-08-24T09:48:37.366Z,101784.41
2022-08-24T09:51:18.991Z,101794.94
2022-08-24T09:54:04.640Z,101788.63
2022-08-24T09:57:12.220Z,101788.09
2022-08-24T10:00:10.809Z,101786.09
2022-08-24T10:02:55.924Z,101784.50
2022-08-24T10:05:44.611Z,101789.09
2022-08-24T10:08:20.458Z,101787.56
2022-08-24T10:11:15.644Z,101789.94
2022-08-24T10:14:20.272Z,101768.97
2022-08-24T10:16:53.352Z,101775.16
2022-08-24T10:19:24.252Z,101762.09
2022-08-24T10:21:57.421Z,101761.50
2022-08-24T10:24:30.302Z,101757.38
2022-08-24T10:27:34.658Z,101763.88
2022-08-24T10:30:30.671Z,101757.25
2022-08-24T10:33:06.420Z,101764.88
2022-08-24T10:35:45.825Z,101760.38
2022-08-24T10:38:51.289Z,101768.28
2022-08-24T10:41:41.715Z,101757.91
2022-08-24T10:44:27.113Z,101753.63
2022-08-24T10:46:59.765Z,101753.19
2022-08-24T10:49:29.441Z,101755.25
2022-08-24T10:52:14.447Z,101748.19
2022-08-24T10:54:41.357Z,101750.31
2022-08-24T10:57:28.611Z,101759.44
2022-08-24T10:59:59.346Z,101752.78
2022-08-24T11:02:38.057Z,101752.59
2022-08-24T11:05:10.739Z,101749.16
2022-08-24T11:07:38.577Z,101749.00
2022-08-24T11:10:09.008Z,101737.72
2022-08-24T11:12:38.750Z,101740.03
2022-08-24T11:15:28.259Z,101744.81
2022-08-24T11:18:03.126Z,101735.19
2022-08-24T11:20:36.717Z,101740.19
2022-08-24T11:23:07.075Z,101739.31
2022-08-24T11:25:36.857Z,101741.84
2022-08-24T11:28:17.509Z,101744.78
2022-08-24T11:30:44.351Z,101734.25
2022-08-24T11:33:29.364Z,101731.81
2022-08-24T11:35:56.927Z,101734.44
2022-08-24T11:38:34.513Z,101732.00
2022-08-24T11:41:20.595Z,101737.06
2022-08-24T11:44:07.889Z,101733.31
2022-08-24T11:47:00.504Z,101724.59
2022-08-24T11:49:54.670Z,101727.38
2022-08-24T11:52:58.849Z,101727.38
2022-08-24T11:55:45.396Z,101720.63
2022-08-24T11:58:32.707Z,101716.97
2022-08-24T12:01:07.144Z,101714.88
2022-08-24T12:03:33.894Z,101712.38
2022-08-24T12:06:32.517Z,101715.22
2022-08-24T12:08:59.606Z,101711.00
2022-08-24T12:11:53.520Z,101707.44
2022-08-24T12:14:33.177Z,101711.34
2022-08-24T12:17:10.293Z,101714.91
2022-08-24T12:19:48.662Z,101720.06
2022-08-24T12:22:16.530Z,101711.34
2022-08-24T12:24:52.776Z,101709.19
2022-08-24T12:27:26.209Z,101714.44
2022-08-24T12:30:05.555Z,101709.88
2022-08-24T12:32:49.050Z,101706.50
2022-08-24T12:35:32.785Z,101704.72
2022-08-24T12:38:13.896Z,101690.50
2022-08-24T12:40:44.344Z,101698.06
2022-08-24T12:43:26.492Z,101699.81
2022-08-24T12:45:56.867Z,101691.31
2022-08-24T12:48:39.592Z,101677.81
2022-08-24T12:51:06.368Z,101681.69
2022-08-24T12:54:08.397Z,101686.69
2022-08-24T12:56:54.109Z,101692.44
2022-08-24T12:59:20.998Z,101683.75
2022-08-24T13:01:58.601Z,101685.19
2022-08-24T13:04:28.491Z,101678.47
2022-08-24T13:07:12.012Z,101669.53
2022-08-24T13:09:40.607Z,101674.53
2022-08-24T13:12:38.563Z,101685.66
2022-08-24T13:15:26.423Z,101679.84
2022-08-24T13:18:01.687Z,101681.44
2022-08-24T13:20:38.754Z,101682.78
2022-08-24T13:23:07.083Z,101684.53
2022-08-24T13:25:52.870Z,101687.09
2022-08-24T13:28:25.847Z,101678.38
2022-08-24T13:31:02.947Z,101686.81
2022-08-24T13:33:32.569Z,101679.09
2022-08-24T13:36:21.675Z,101677.22
2022-08-24T13:39:21.151Z,101677.22
2022-08-24T13:42:12.944Z,101677.41
2022-08-24T13:44:48.180Z,101685.47
2022-08-24T13:47:24.240Z,101675.81
2022-08-24T13:50:26.542Z,101674.63
2022-08-24T13:53:05.522Z,101663.34
2022-08-24T13:55:39.721Z,101672.91
2022-08-24T13:58:13.633Z,101673.81
2022-08-24T14:00:52.589Z,101663.56
2022-08-24T14:03:19.310Z,101670.06
2022-08-24T14:05:50.906Z,101663.38
2022-08-24T14:08:30.308Z,101666.88
2022-08-24T14:11:00.497Z,101664.94
2022-08-24T14:13:46.787Z,101655.56
2022-08-24T14:17:17.276Z,101665.16
2022-08-24T14:20:09.188Z,101662.44
2022-08-24T14:23:01.140Z,101664.88
2022-08-24T14:25:33.373Z,101666.59
2022-08-24T14:28:00.232Z,101664.25
2022-08-24T14:30:27.061Z,101663.78
2022-08-24T14:33:00.104Z,101667.72
2022-08-24T14:35:29.870Z,101673.66
2022-08-24T14:38:10.575Z,101668.38
2022-08-24T14:41:04.068Z,101666.94
2022-08-24T14:43:35.038Z,101658.88
2022-08-24T14:46:18.093Z,101656.16
2022-08-24T14:49:10.021Z,101652.44
2022-08-24T14:52:04.454Z,101654.56
2022-08-24T14:54:38.287Z,101658.47
2022-08-24T14:57:29.824Z,101649.00
2022-08-24T15:00:24.978Z,101650.13
2022-08-24T15:02:51.735Z,101644.19
2022-08-24T15:05:25.646Z,101644.81
2022-08-24T15:08:02.539Z,101630.56
2022-08-24T15:10:39.259Z,101634.81
2022-08-24T15:13:28.010Z,101637.16
2022-08-24T15:16:03.376Z,101636.78
2022-08-24T15:18:42.396Z,101633.28
2022-08-24T15:21:21.424Z,101626.66
2022-08-24T15:24:09.842Z,101621.75
2022-08-24T15:27:01.806Z,101629.00
2022-08-24T15:29:31.758Z,101631.78
2022-08-24T15:32:16.932Z,101635.13
2022-08-24T15:34:55.565Z,101635.97
2022-08-24T15:37:34.624Z,101638.00
2022-08-24T15:40:04.509Z,101632.50
2022-08-24T15:42:34.317Z,101625.72
2022-08-24T15:45:02.742Z,101626.91
2022-08-24T15:47:38.069Z,101633.94
2022-08-24T15:50:08.690Z,101631.09
2022-08-24T15:52:44.052Z,101630.38
2022-08-24T15:55:35.372Z,101632.25
2022-08-24T15:58:25.793Z,101628.41
2022-08-24T16:01:19.207Z,101627.50
2022-08-24T16:03:50.032Z,101630.97
2022-08-24T16:06:21.719Z,101622.88
2022-08-24T16:08:58.915Z,101615.25
2022-08-24T16:11:38.653Z,101614.66
2022-08-24T16:14:08.530Z,101621.00
2022-08-24T16:16:40.916Z,101619.44
2022-08-24T16:19:19.478Z,101622.75
2022-08-24T16:22:07.677Z,101616.97
2022-08-24T16:24:37.256Z,101611.78
2022-08-24T16:27:13.661Z,101619.69
2022-08-24T16:29:42.034Z,101611.19
2022-08-24T16:32:22.991Z,101610.59
2022-08-24T16:35:09.327Z,101618.41
2022-08-24T16:37:36.426Z,101616.06
2022-08-24T16:40:10.812Z,101615.84
2022-08-24T16:42:37.822Z,101622.69
2022-08-24T16:45:08.040Z,101622.63
2022-08-24T16:47:34.946Z,101620.75
2022-08-24T16:50:02.078Z,101630.44
2022-08-24T16:52:28.831Z,101624.38
2022-08-24T16:54:55.570Z,101627.38
2022-08-24T16:57:29.760Z,101628.22
2022-08-24T16:59:56.864Z,101628.50
2022-08-24T17:02:25.964Z,101635.69
2022-08-24T17:04:54.971Z,101629.66
2022-08-24T17:07:24.871Z,101632.09
2022-08-24T17:09:52.290Z,101629.09
2022-08-24T17:12:19.429Z,101632.94
2022-08-24T17:14:46.406Z,101627.00
2022-08-24T17:17:15.294Z,101627.88
2022-08-24T17:19:43.868Z,101627.00
2022-08-24T17:22:15.989Z,101639.16
2022-08-24T17:24:43.448Z,101636.13
2022-08-24T17:27:10.705Z,101638.50
2022-08-24T17:29:37.583Z,101639.50
2022-08-24T17:32:05.350Z,101645.38
2022-08-24T17:34:32.521Z,101646.25
2022-08-24T17:36:59.806Z,101642.91
2022-08-24T17:39:28.493Z,101647.22
2022-08-24T17:41:56.982Z,101646.28
2022-08-24T17:44:26.539Z,101650.41
2022-08-24T17:46:55.128Z,101645.19
2022-08-24T17:49:22.255Z,101659.41
2022-08-24T17:51:49.893Z,101653.75
2022-08-24T17:54:17.604Z,101653.81
2022-08-24T17:56:46.713Z,101655.34
2022-08-24T17:59:23.655Z,101657.69
2022-08-24T18:01:56.939Z,101666.00
2022-08-24T18:04:27.712Z,101668.00
2022-08-24T18:06:56.060Z,101672.19
2022-08-24T18:09:38.439Z,101678.59
2022-08-24T18:12:07.405Z,101681.22
2022-08-24T18:14:34.888Z,101680.88
2022-08-24T18:17:05.830Z,101684.47
2022-08-24T18:19:33.984Z,101682.03
2022-08-24T18:22:01.647Z,101690.47
2022-08-24T18:24:32.684Z,101691.34
2022-08-24T18:27:02.110Z,101699.28
2022-08-24T18:29:37.478Z,101700.50
2022-08-24T18:32:04.396Z,101699.63
2022-08-24T18:34:31.976Z,101703.84
2022-08-24T18:36:58.789Z,101709.31
2022-08-24T18:39:25.642Z,101708.19
2022-08-24T18:41:53.017Z,101708.19
2022-08-24T18:44:21.866Z,101712.16
2022-08-24T18:46:49.238Z,101722.19
2022-08-24T18:49:17.409Z,101720.59
2022-08-24T18:51:45.194Z,101725.53
2022-08-24T18:54:21.173Z,101727.28
2022-08-24T18:56:48.318Z,101724.56
2022-08-24T18:59:16.153Z,101730.00
2022-08-24T19:02:03.285Z,101730.84
2022-08-24T19:04:33.300Z,101736.28
2022-08-24T19:07:01.199Z,101736.03
2022-08-24T19:09:33.948Z,101734.19
2022-08-24T19:12:01.588Z,101734.53
2022-08-24T19:14:28.688Z,101732.38
2022-08-24T19:16:55.510Z,101732.22
2022-08-24T19:19:22.712Z,101735.84
2022-08-24T19:21:49.763Z,101735.84
2022-08-24T19:24:18.807Z,101729.63
2022-08-24T19:26:45.698Z,101738.28
2022-08-24T19:29:12.496Z,101740.00
2022-08-24T19:31:39.357Z,101731.44
2022-08-24T19:34:06.843Z,101736.00
2022-08-24T19:36:33.656Z,101726.13
2022-08-24T19:39:00.488Z,101736.00
2022-08-24T19:41:36.554Z,101738.13
2022-08-24T19:44:27.331Z,101732.25
2022-08-24T19:46:55.788Z,101737.31
2022-08-24T19:49:23.709Z,101738.28
2022-08-24T19:51:51.022Z,101737.69
2022-08-24T19:54:17.907Z,101736.28
2022-08-24T19:56:45.657Z,101741.94
2022-08-24T19:59:27.083Z,101739.47
2022-08-24T20:01:54.243Z,101746.13
2022-08-24T20:04:21.046Z,101737.31
2022-08-24T20:06:48.121Z,101737.66
2022-08-24T20:09:15.183Z,101746.50
2022-08-24T20:11:42.472Z,101747.25
2022-08-24T20:14:09.759Z,101753.66
2022-08-24T20:16:42.244Z,101752.16
2022-08-24T20:19:11.042Z,101749.41
2022-08-24T20:21:38.908Z,101748.81
2022-08-24T20:24:06.539Z,101743.78
2022-08-24T20:26:39.404Z,101752.31
2022-08-24T20:29:06.338Z,101749.59
2022-08-24T20:31:33.446Z,101751.53
2022-08-24T20:34:00.172Z,101758.84
2022-08-24T20:36:29.936Z,101758.41
2022-08-24T20:38:58.164Z,101758.41
2022-08-24T20:41:26.134Z,101764.97
2022-08-24T20:43:53.337Z,101758.25
2022-08-24T20:46:20.803Z,101762.03
2022-08-24T20:48:55.738Z,101762.94
2022-08-24T20:51:24.290Z,101767.72
2022-08-24T20:53:51.050Z,101761.38
2022-08-24T20:56:33.975Z,101760.63
2022-08-24T20:59:06.723Z,101752.91
2022-08-24T21:01:33.451Z,101751.19
2022-08-24T21:04:04.799Z,101759.25
2022-08-24T21:06:33.222Z,101765.63
2022-08-24T21:09:00.853Z,101766.50
2022-08-24T21:11:27.699Z,101759.97
2022-08-24T21:13:54.423Z,101759.97
2022-08-24T21:16:21.255Z,101751.03
2022-08-24T21:18:48.079Z,101760.28
2022-08-24T21:21:14.798Z,101758.88
2022-08-24T21:23:41.574Z,101765.31
2022-08-24T21:26:10.950Z,101760.94
2022-08-24T21:28:40.495Z,101759.97
2022-08-24T21:31:07.339Z,101758.97
2022-08-24T21:33:53.195Z,101759.97
2022-08-24T21:36:21.405Z,101759.13
2022-08-24T21:38:48.572Z,101758.31
2022-08-24T21:41:15.760Z,101762.38
2022-08-24T21:43:42.711Z,101766.81
2022-08-24T21:46:09.913Z,101757.13
2022-08-24T21:48:36.711Z,101763.00
2022-08-24T21:51:03.780Z,101769.41
2022-08-24T21:53:30.542Z,101769.53
2022-08-24T21:55:57.630Z,101775.19
2022-08-24T21:58:24.594Z,101778.66
2022-08-24T22:00:51.991Z,101770.41
2022-08-24T22:03:19.519Z,101765.94
2022-08-24T22:05:46.233Z,101774.97
2022-08-24T22:08:12.963Z,101771.78
2022-08-24T22:10:39.719Z,101775.69
2022-08-24T22:13:07.201Z,101774.41
2022-08-24T22:15:34.295Z,101775.41
2022-08-24T22:18:01.439Z,101772.69
2022-08-24T22:20:28.398Z,101766.59
2022-08-24T22:22:55.152Z,101756.69
2022-08-24T22:25:21.861Z,101759.63
2022-08-24T22:27:48.923Z,101773.22
2022-08-24T22:30:17.901Z,101763.41
2022-08-24T22:32:46.182Z,101757.34
2022-08-24T22:35:13.194Z,101770.16
2022-08-24T22:37:39.959Z,101774.69
2022-08-24T22:40:07.428Z,101759.59
2022-08-24T22:42:39.241Z,101770.59
2022-08-24T22:45:06.575Z,101766.22
2022-08-24T22:47:33.641Z,101772.75
2022-08-24T22:50:00.427Z,101770.13
2022-08-24T22:52:27.411Z,101770.34
2022-08-24T22:54:58.513Z,101759.72
2022-08-24T22:57:26.860Z,101763.38
2022-08-24T22:59:54.939Z,101760.94
2022-08-24T23:02:22.395Z,101757.75
2022-08-24T23:04:50.944Z,101761.34
2022-08-24T23:07:18.513Z,101758.84
2022-08-24T23:09:46.436Z,101759.91
2022-08-24T23:12:19.879Z,101760.13
2022-08-24T23:14:46.598Z,101759.38
2022-08-24T23:17:14.681Z,101764.03
2022-08-24T23:20:00.380Z,101748.91
2022-08-24T23:22:35.684Z,101742.72
2022-08-24T23:25:03.607Z,101752.06
2022-08-24T23:27:37.730Z,101740.41
2022-08-24T23:30:07.826Z,101740.63
2022-08-24T23:32:34.534Z,101739.53
2022-08-24T23:35:01.253Z,101730.72
2022-08-24T23:37:28.347Z,101737.22
2022-08-24T23:39:55.157Z,101743.75
2022-08-24T23:42:21.956Z,101746.56
2022-08-24T23:44:48.683Z,101743.94
2022-08-24T23:47:15.457Z,101743.94
2022-08-24T23:49:42.252Z,101735.03
2022-08-24T23:52:08.961Z,101749.59
2022-08-24T23:54:53.001Z,101746.00
2022-08-24T23:57:19.746Z,101738.91
2022-08-24T23:59:46.453Z,101734.75
